sensor_id;sensor_type;location;lat;lon;timestamp;P1;durP1;ratioP1;P2;durP2;ratioP2
4009;SDS011;2019;48.200;11.548;2022-08-27T00:00:51;14.10;;;7.40;;
4009;SDS011;2019;48.200;11.548;2022-08-27T00:03:17;10.87;;;7.60;;
4009;SDS011;2019;48.200;11.548;2022-08-27T00:05:43;14.10;;;7.20;;
4009;SDS011;2019;48.200;11.548;2022-08-27T00:08:09;10.13;;;6.80;;
4009;SDS011;2019;48.200;11.548;2022-08-27T00:10:36;10.90;;;7.50;;
4009;SDS011;2019;48.200;11.548;2022-08-27T00:13:02;12.50;;;7.83;;
4009;SDS011;2019;48.200;11.548;2022-08-27T00:15:28;16.20;;;7.80;;
4009;SDS011;2019;48.200;11.548;2022-08-27T00:17:54;11.20;;;7.00;;
4009;SDS011;2019;48.200;11.548;2022-08-27T00:20:21;11.93;;;8.80;;
4009;SDS011;2019;48.200;11.548;2022-08-27T00:22:48;11.70;;;8.20;;
4009;SDS011;2019;48.200;11.548;2022-08-27T00:25:14;9.73;;;7.57;;
4009;SDS011;2019;48.200;11.548;2022-08-27T00:27:40;12.97;;;8.77;;
4009;SDS011;2019;48.200;11.548;2022-08-27T00:30:07;12.43;;;8.90;;
4009;SDS011;2019;48.200;11.548;2022-08-27T00:32:36;15.53;;;9.50;;
4009;SDS011;2019;48.200;11.548;2022-08-27T00:35:02;18.17;;;10.13;;
4009;SDS011;2019;48.200;11.548;2022-08-27T00:37:28;15.43;;;9.93;;
4009;SDS011;2019;48.200;11.548;2022-08-27T00:39:54;13.30;;;9.80;;
4009;SDS011;2019;48.200;11.548;2022-08-27T00:42:19;13.23;;;10.00;;
4009;SDS011;2019;48.200;11.548;2022-08-27T00:44:46;15.63;;;11.10;;
4009;SDS011;2019;48.200;11.548;2022-08-27T00:47:14;15.30;;;10.90;;
4009;SDS011;2019;48.200;11.548;2022-08-27T00:52:26;17.03;;;11.97;;
4009;SDS011;2019;48.200;11.548;2022-08-27T00:54:59;17.00;;;10.50;;
4009;SDS011;2019;48.200;11.548;2022-08-27T00:57:38;16.07;;;11.27;;
4009;SDS011;2019;48.200;11.548;2022-08-27T01:00:07;14.37;;;8.97;;
4009;SDS011;2019;48.200;11.548;2022-08-27T01:02:35;15.13;;;9.77;;
4009;SDS011;2019;48.200;11.548;2022-08-27T01:07:35;13.73;;;9.67;;
4009;SDS011;2019;48.200;11.548;2022-08-27T01:10:06;16.90;;;9.80;;
4009;SDS011;2019;48.200;11.548;2022-08-27T01:12:38;11.97;;;8.67;;
4009;SDS011;2019;48.200;11.548;2022-08-27T01:15:05;15.50;;;9.43;;
4009;SDS011;2019;48.200;11.548;2022-08-27T01:17:36;15.83;;;10.20;;
4009;SDS011;2019;48.200;11.548;2022-08-27T01:20:04;13.70;;;9.50;;
4009;SDS011;2019;48.200;11.548;2022-08-27T01:25:13;14.80;;;9.40;;
4009;SDS011;2019;48.200;11.548;2022-08-27T01:27:40;17.43;;;8.40;;
4009;SDS011;2019;48.200;11.548;2022-08-27T01:30:09;14.00;;;10.07;;
4009;SDS011;2019;48.200;11.548;2022-08-27T01:32:37;13.57;;;10.50;;
4009;SDS011;2019;48.200;11.548;2022-08-27T01:35:04;14.83;;;9.77;;
4009;SDS011;2019;48.200;11.548;2022-08-27T01:37:32;20.10;;;10.60;;
4009;SDS011;2019;48.200;11.548;2022-08-27T01:39:59;15.37;;;9.93;;
4009;SDS011;2019;48.200;11.548;2022-08-27T01:44:58;21.77;;;11.50;;
4009;SDS011;2019;48.200;11.548;2022-08-27T01:47:27;16.70;;;10.40;;
4009;SDS011;2019;48.200;11.548;2022-08-27T01:49:54;14.93;;;10.40;;
4009;SDS011;2019;48.200;11.548;2022-08-27T01:52:21;18.50;;;10.60;;
4009;SDS011;2019;48.200;11.548;2022-08-27T01:54:49;17.60;;;11.20;;
4009;SDS011;2019;48.200;11.548;2022-08-27T01:57:16;18.63;;;10.90;;
4009;SDS011;2019;48.200;11.548;2022-08-27T01:59:42;15.17;;;11.30;;
4009;SDS011;2019;48.200;11.548;2022-08-27T02:02:07;17.10;;;11.10;;
4009;SDS011;2019;48.200;11.548;2022-08-27T02:04:35;14.17;;;10.50;;
4009;SDS011;2019;48.200;11.548;2022-08-27T02:07:01;15.73;;;10.50;;
4009;SDS011;2019;48.200;11.548;2022-08-27T02:09:27;16.93;;;10.87;;
4009;SDS011;2019;48.200;11.548;2022-08-27T02:11:52;18.40;;;10.90;;
4009;SDS011;2019;48.200;11.548;2022-08-27T02:14:18;19.43;;;9.77;;
4009;SDS011;2019;48.200;11.548;2022-08-27T02:16:44;17.47;;;11.97;;
4009;SDS011;2019;48.200;11.548;2022-08-27T02:19:10;19.67;;;11.40;;
4009;SDS011;2019;48.200;11.548;2022-08-27T02:21:36;24.40;;;12.07;;
4009;SDS011;2019;48.200;11.548;2022-08-27T02:24:02;20.10;;;11.50;;
4009;SDS011;2019;48.200;11.548;2022-08-27T02:26:28;19.20;;;12.20;;
4009;SDS011;2019;48.200;11.548;2022-08-27T02:28:54;17.53;;;11.03;;
4009;SDS011;2019;48.200;11.548;2022-08-27T02:31:20;19.00;;;11.77;;
4009;SDS011;2019;48.200;11.548;2022-08-27T02:33:46;22.93;;;12.73;;
4009;SDS011;2019;48.200;11.548;2022-08-27T02:36:13;21.87;;;12.10;;
4009;SDS011;2019;48.200;11.548;2022-08-27T02:38:39;18.30;;;12.57;;
4009;SDS011;2019;48.200;11.548;2022-08-27T02:41:05;18.67;;;11.80;;
4009;SDS011;2019;48.200;11.548;2022-08-27T02:43:31;16.80;;;12.30;;
4009;SDS011;2019;48.200;11.548;2022-08-27T02:45:57;17.03;;;11.17;;
4009;SDS011;2019;48.200;11.548;2022-08-27T02:48:22;16.17;;;11.60;;
4009;SDS011;2019;48.200;11.548;2022-08-27T02:50:49;23.77;;;12.70;;
4009;SDS011;2019;48.200;11.548;2022-08-27T02:53:15;16.43;;;11.70;;
4009;SDS011;2019;48.200;11.548;2022-08-27T02:55:42;18.90;;;11.80;;
4009;SDS011;2019;48.200;11.548;2022-08-27T02:58:08;16.70;;;11.43;;
4009;SDS011;2019;48.200;11.548;2022-08-27T03:00:33;17.77;;;12.27;;
4009;SDS011;2019;48.200;11.548;2022-08-27T03:02:59;18.20;;;11.60;;
4009;SDS011;2019;48.200;11.548;2022-08-27T03:05:26;15.83;;;11.97;;
4009;SDS011;2019;48.200;11.548;2022-08-27T03:07:52;16.83;;;11.60;;
4009;SDS011;2019;48.200;11.548;2022-08-27T03:10:18;16.23;;;11.87;;
4009;SDS011;2019;48.200;11.548;2022-08-27T03:12:45;19.63;;;11.83;;
4009;SDS011;2019;48.200;11.548;2022-08-27T03:15:12;17.50;;;11.97;;
4009;SDS011;2019;48.200;11.548;2022-08-27T03:17:39;15.63;;;11.20;;
4009;SDS011;2019;48.200;11.548;2022-08-27T03:20:24;16.20;;;11.67;;
4009;SDS011;2019;48.200;11.548;2022-08-27T03:22:51;18.00;;;9.80;;
4009;SDS011;2019;48.200;11.548;2022-08-27T03:25:17;17.63;;;12.27;;
4009;SDS011;2019;48.200;11.548;2022-08-27T03:27:43;16.83;;;11.93;;
4009;SDS011;2019;48.200;11.548;2022-08-27T03:30:10;19.17;;;11.70;;
4009;SDS011;2019;48.200;11.548;2022-08-27T03:32:41;18.80;;;11.20;;
4009;SDS011;2019;48.200;11.548;2022-08-27T03:35:07;23.20;;;12.90;;
4009;SDS011;2019;48.200;11.548;2022-08-27T03:37:33;16.43;;;11.87;;
4009;SDS011;2019;48.200;11.548;2022-08-27T03:39:59;22.90;;;12.77;;
4009;SDS011;2019;48.200;11.548;2022-08-27T03:42:24;17.20;;;11.13;;
4009;SDS011;2019;48.200;11.548;2022-08-27T03:44:50;17.60;;;11.90;;
4009;SDS011;2019;48.200;11.548;2022-08-27T03:47:16;15.53;;;11.73;;
4009;SDS011;2019;48.200;11.548;2022-08-27T03:49:42;17.30;;;11.70;;
4009;SDS011;2019;48.200;11.548;2022-08-27T03:52:08;17.40;;;12.03;;
4009;SDS011;2019;48.200;11.548;2022-08-27T03:54:35;17.00;;;11.40;;
4009;SDS011;2019;48.200;11.548;2022-08-27T03:57:02;15.70;;;10.77;;
4009;SDS011;2019;48.200;11.548;2022-08-27T03:59:28;14.90;;;11.07;;
4009;SDS011;2019;48.200;11.548;2022-08-27T04:01:54;15.57;;;11.30;;
4009;SDS011;2019;48.200;11.548;2022-08-27T04:04:20;19.83;;;11.73;;
4009;SDS011;2019;48.200;11.548;2022-08-27T04:06:47;17.17;;;10.73;;
4009;SDS011;2019;48.200;11.548;2022-08-27T04:09:13;15.27;;;10.07;;
4009;SDS011;2019;48.200;11.548;2022-08-27T04:11:39;17.00;;;11.30;;
4009;SDS011;2019;48.200;11.548;2022-08-27T04:14:05;14.87;;;10.17;;
4009;SDS011;2019;48.200;11.548;2022-08-27T04:16:32;12.20;;;8.93;;
4009;SDS011;2019;48.200;11.548;2022-08-27T04:18:57;11.33;;;9.20;;
4009;SDS011;2019;48.200;11.548;2022-08-27T04:21:23;11.53;;;9.70;;
4009;SDS011;2019;48.200;11.548;2022-08-27T04:23:49;13.30;;;9.03;;
4009;SDS011;2019;48.200;11.548;2022-08-27T04:26:15;13.43;;;9.20;;
4009;SDS011;2019;48.200;11.548;2022-08-27T04:28:41;11.43;;;8.60;;
4009;SDS011;2019;48.200;11.548;2022-08-27T04:31:06;12.80;;;8.50;;
4009;SDS011;2019;48.200;11.548;2022-08-27T04:33:32;13.70;;;8.53;;
4009;SDS011;2019;48.200;11.548;2022-08-27T04:35:59;14.60;;;9.10;;
4009;SDS011;2019;48.200;11.548;2022-08-27T04:38:30;14.60;;;9.17;;
4009;SDS011;2019;48.200;11.548;2022-08-27T04:40:56;12.10;;;8.53;;
4009;SDS011;2019;48.200;11.548;2022-08-27T04:43:40;13.77;;;9.40;;
4009;SDS011;2019;48.200;11.548;2022-08-27T04:46:06;13.50;;;9.47;;
4009;SDS011;2019;48.200;11.548;2022-08-27T04:48:33;13.23;;;8.87;;
4009;SDS011;2019;48.200;11.548;2022-08-27T04:50:59;13.57;;;8.73;;
4009;SDS011;2019;48.200;11.548;2022-08-27T04:53:25;11.23;;;8.37;;
4009;SDS011;2019;48.200;11.548;2022-08-27T04:55:51;12.40;;;8.33;;
4009;SDS011;2019;48.200;11.548;2022-08-27T04:58:19;11.80;;;8.90;;
4009;SDS011;2019;48.200;11.548;2022-08-27T05:00:47;12.77;;;9.40;;
4009;SDS011;2019;48.200;11.548;2022-08-27T05:03:14;15.53;;;9.93;;
4009;SDS011;2019;48.200;11.548;2022-08-27T05:05:41;12.90;;;8.80;;
4009;SDS011;2019;48.200;11.548;2022-08-27T05:08:08;15.83;;;8.90;;
4009;SDS011;2019;48.200;11.548;2022-08-27T05:10:37;12.73;;;8.87;;
4009;SDS011;2019;48.200;11.548;2022-08-27T05:13:04;11.63;;;9.30;;
4009;SDS011;2019;48.200;11.548;2022-08-27T05:15:30;14.33;;;10.87;;
4009;SDS011;2019;48.200;11.548;2022-08-27T05:17:55;14.97;;;9.60;;
4009;SDS011;2019;48.200;11.548;2022-08-27T05:20:24;15.00;;;8.70;;
4009;SDS011;2019;48.200;11.548;2022-08-27T05:22:51;13.30;;;9.60;;
4009;SDS011;2019;48.200;11.548;2022-08-27T05:25:17;15.13;;;9.80;;
4009;SDS011;2019;48.200;11.548;2022-08-27T05:27:42;13.57;;;9.77;;
4009;SDS011;2019;48.200;11.548;2022-08-27T05:30:08;18.57;;;9.90;;
4009;SDS011;2019;48.200;11.548;2022-08-27T05:32:34;13.07;;;9.53;;
4009;SDS011;2019;48.200;11.548;2022-08-27T05:34:59;16.80;;;10.30;;
4009;SDS011;2019;48.200;11.548;2022-08-27T05:37:25;16.63;;;10.90;;
4009;SDS011;2019;48.200;11.548;2022-08-27T05:39:51;18.07;;;11.03;;
4009;SDS011;2019;48.200;11.548;2022-08-27T05:42:16;15.33;;;11.50;;
4009;SDS011;2019;48.200;11.548;2022-08-27T05:44:44;13.57;;;9.97;;
4009;SDS011;2019;48.200;11.548;2022-08-27T05:47:10;12.40;;;9.90;;
4009;SDS011;2019;48.200;11.548;2022-08-27T05:49:35;14.47;;;9.77;;
4009;SDS011;2019;48.200;11.548;2022-08-27T05:52:02;16.00;;;10.50;;
4009;SDS011;2019;48.200;11.548;2022-08-27T05:54:31;13.90;;;10.67;;
4009;SDS011;2019;48.200;11.548;2022-08-27T05:56:57;15.67;;;10.40;;
4009;SDS011;2019;48.200;11.548;2022-08-27T05:59:23;15.93;;;10.60;;
4009;SDS011;2019;48.200;11.548;2022-08-27T06:02:07;13.43;;;9.37;;
4009;SDS011;2019;48.200;11.548;2022-08-27T06:04:33;13.67;;;9.93;;
4009;SDS011;2019;48.200;11.548;2022-08-27T06:06:58;14.27;;;9.20;;
4009;SDS011;2019;48.200;11.548;2022-08-27T06:09:25;12.50;;;9.50;;
4009;SDS011;2019;48.200;11.548;2022-08-27T06:11:53;14.03;;;10.00;;
4009;SDS011;2019;48.200;11.548;2022-08-27T06:14:20;17.53;;;11.83;;
4009;SDS011;2019;48.200;11.548;2022-08-27T06:16:47;17.07;;;10.90;;
4009;SDS011;2019;48.200;11.548;2022-08-27T06:19:12;14.60;;;10.13;;
4009;SDS011;2019;48.200;11.548;2022-08-27T06:21:39;15.20;;;9.70;;
4009;SDS011;2019;48.200;11.548;2022-08-27T06:24:05;14.57;;;9.60;;
4009;SDS011;2019;48.200;11.548;2022-08-27T06:26:31;12.87;;;9.80;;
4009;SDS011;2019;48.200;11.548;2022-08-27T06:29:00;12.13;;;9.20;;
4009;SDS011;2019;48.200;11.548;2022-08-27T06:31:30;13.43;;;9.30;;
4009;SDS011;2019;48.200;11.548;2022-08-27T06:33:57;12.60;;;9.43;;
4009;SDS011;2019;48.200;11.548;2022-08-27T06:36:24;11.87;;;9.23;;
4009;SDS011;2019;48.200;11.548;2022-08-27T06:38:50;12.63;;;9.90;;
4009;SDS011;2019;48.200;11.548;2022-08-27T06:41:18;23.50;;;16.33;;
4009;SDS011;2019;48.200;11.548;2022-08-27T06:43:45;14.10;;;9.80;;
4009;SDS011;2019;48.200;11.548;2022-08-27T06:46:12;14.07;;;9.80;;
4009;SDS011;2019;48.200;11.548;2022-08-27T06:48:40;11.17;;;9.27;;
4009;SDS011;2019;48.200;11.548;2022-08-27T06:51:09;11.20;;;8.70;;
4009;SDS011;2019;48.200;11.548;2022-08-27T06:53:40;12.40;;;9.00;;
4009;SDS011;2019;48.200;11.548;2022-08-27T06:56:07;13.47;;;9.33;;
4009;SDS011;2019;48.200;11.548;2022-08-27T06:58:34;16.80;;;9.67;;
4009;SDS011;2019;48.200;11.548;2022-08-27T07:01:00;12.10;;;10.03;;
4009;SDS011;2019;48.200;11.548;2022-08-27T07:03:34;13.07;;;9.43;;
4009;SDS011;2019;48.200;11.548;2022-08-27T07:06:04;13.90;;;9.67;;
4009;SDS011;2019;48.200;11.548;2022-08-27T07:08:31;13.70;;;10.00;;
4009;SDS011;2019;48.200;11.548;2022-08-27T07:10:57;15.00;;;10.50;;
4009;SDS011;2019;48.200;11.548;2022-08-27T07:13:23;16.27;;;10.70;;
4009;SDS011;2019;48.200;11.548;2022-08-27T07:15:49;15.10;;;11.70;;
4009;SDS011;2019;48.200;11.548;2022-08-27T07:18:15;19.60;;;11.17;;
4009;SDS011;2019;48.200;11.548;2022-08-27T07:20:40;17.53;;;12.10;;
4009;SDS011;2019;48.200;11.548;2022-08-27T07:23:07;17.57;;;12.63;;
4009;SDS011;2019;48.200;11.548;2022-08-27T07:25:33;20.23;;;13.40;;
4009;SDS011;2019;48.200;11.548;2022-08-27T07:27:58;17.77;;;13.27;;
4009;SDS011;2019;48.200;11.548;2022-08-27T07:30:24;20.60;;;14.50;;
4009;SDS011;2019;48.200;11.548;2022-08-27T07:32:52;13.93;;;12.43;;
4009;SDS011;2019;48.200;11.548;2022-08-27T07:35:17;22.43;;;18.03;;
4009;SDS011;2019;48.200;11.548;2022-08-27T07:37:43;41.60;;;31.40;;
4009;SDS011;2019;48.200;11.548;2022-08-27T07:40:10;24.53;;;15.23;;
4009;SDS011;2019;48.200;11.548;2022-08-27T07:42:38;18.27;;;14.13;;
4009;SDS011;2019;48.200;11.548;2022-08-27T07:45:24;18.83;;;14.63;;
4009;SDS011;2019;48.200;11.548;2022-08-27T07:47:50;21.80;;;15.30;;
4009;SDS011;2019;48.200;11.548;2022-08-27T07:50:16;19.47;;;15.77;;
4009;SDS011;2019;48.200;11.548;2022-08-27T07:52:42;17.70;;;14.13;;
4009;SDS011;2019;48.200;11.548;2022-08-27T07:55:08;20.20;;;15.67;;
4009;SDS011;2019;48.200;11.548;2022-08-27T07:57:35;21.00;;;15.93;;
4009;SDS011;2019;48.200;11.548;2022-08-27T08:00:04;24.13;;;16.67;;
4009;SDS011;2019;48.200;11.548;2022-08-27T08:02:33;19.97;;;15.33;;
4009;SDS011;2019;48.200;11.548;2022-08-27T08:04:59;19.07;;;15.07;;
4009;SDS011;2019;48.200;11.548;2022-08-27T08:07:24;20.17;;;15.50;;
4009;SDS011;2019;48.200;11.548;2022-08-27T08:09:50;19.60;;;15.80;;
4009;SDS011;2019;48.200;11.548;2022-08-27T08:12:16;18.70;;;13.40;;
4009;SDS011;2019;48.200;11.548;2022-08-27T08:14:41;16.53;;;12.63;;
4009;SDS011;2019;48.200;11.548;2022-08-27T08:17:07;29.80;;;22.50;;
4009;SDS011;2019;48.200;11.548;2022-08-27T08:19:33;18.53;;;14.70;;
4009;SDS011;2019;48.200;11.548;2022-08-27T08:21:59;14.47;;;11.70;;
4009;SDS011;2019;48.200;11.548;2022-08-27T08:24:25;16.27;;;11.83;;
4009;SDS011;2019;48.200;11.548;2022-08-27T08:26:50;14.97;;;11.13;;
4009;SDS011;2019;48.200;11.548;2022-08-27T08:29:16;18.13;;;12.17;;
4009;SDS011;2019;48.200;11.548;2022-08-27T08:31:42;15.23;;;11.10;;
4009;SDS011;2019;48.200;11.548;2022-08-27T08:34:08;16.67;;;13.10;;
4009;SDS011;2019;48.200;11.548;2022-08-27T08:36:34;25.97;;;19.90;;
4009;SDS011;2019;48.200;11.548;2022-08-27T08:39:00;38.87;;;28.73;;
4009;SDS011;2019;48.200;11.548;2022-08-27T08:41:39;22.60;;;15.97;;
4009;SDS011;2019;48.200;11.548;2022-08-27T08:46:47;15.03;;;10.83;;
4009;SDS011;2019;48.200;11.548;2022-08-27T08:49:40;11.87;;;8.80;;
4009;SDS011;2019;48.200;11.548;2022-08-27T08:52:20;11.00;;;8.80;;
4009;SDS011;2019;48.200;11.548;2022-08-27T08:54:59;12.70;;;8.60;;
4009;SDS011;2019;48.200;11.548;2022-08-27T08:57:35;11.80;;;8.30;;
4009;SDS011;2019;48.200;11.548;2022-08-27T09:00:13;12.23;;;8.17;;
4009;SDS011;2019;48.200;11.548;2022-08-27T09:02:39;11.37;;;8.93;;
4009;SDS011;2019;48.200;11.548;2022-08-27T09:05:08;45.73;;;31.03;;
4009;SDS011;2019;48.200;11.548;2022-08-27T09:07:47;12.87;;;9.97;;
4009;SDS011;2019;48.200;11.548;2022-08-27T09:12:46;16.83;;;10.53;;
4009;SDS011;2019;48.200;11.548;2022-08-27T09:15:17;11.17;;;8.93;;
4009;SDS011;2019;48.200;11.548;2022-08-27T09:17:46;13.40;;;9.40;;
4009;SDS011;2019;48.200;11.548;2022-08-27T09:20:13;13.43;;;8.07;;
4009;SDS011;2019;48.200;11.548;2022-08-27T09:25:25;9.03;;;8.00;;
4009;SDS011;2019;48.200;11.548;2022-08-27T09:27:55;18.30;;;15.10;;
4009;SDS011;2019;48.200;11.548;2022-08-27T09:30:25;13.43;;;9.13;;
4009;SDS011;2019;48.200;11.548;2022-08-27T09:32:53;11.17;;;8.83;;
4009;SDS011;2019;48.200;11.548;2022-08-27T09:35:22;13.07;;;9.63;;
4009;SDS011;2019;48.200;11.548;2022-08-27T09:37:51;11.80;;;9.23;;
4009;SDS011;2019;48.200;11.548;2022-08-27T09:42:55;11.43;;;8.80;;
4009;SDS011;2019;48.200;11.548;2022-08-27T09:45:23;14.33;;;11.63;;
4009;SDS011;2019;48.200;11.548;2022-08-27T09:48:00;23.97;;;16.23;;
4009;SDS011;2019;48.200;11.548;2022-08-27T09:50:54;20.80;;;15.47;;
4009;SDS011;2019;48.200;11.548;2022-08-27T09:53:32;14.87;;;10.10;;
4009;SDS011;2019;48.200;11.548;2022-08-27T09:59:07;11.40;;;8.50;;
4009;SDS011;2019;48.200;11.548;2022-08-27T10:01:47;13.23;;;9.10;;
4009;SDS011;2019;48.200;11.548;2022-08-27T10:04:15;12.37;;;9.40;;
4009;SDS011;2019;48.200;11.548;2022-08-27T10:06:48;11.57;;;7.73;;
4009;SDS011;2019;48.200;11.548;2022-08-27T10:12:05;19.93;;;9.43;;
4009;SDS011;2019;48.200;11.548;2022-08-27T10:14:40;16.90;;;13.40;;
4009;SDS011;2019;48.200;11.548;2022-08-27T10:17:16;23.50;;;17.00;;
4009;SDS011;2019;48.200;11.548;2022-08-27T10:22:43;7.90;;;7.10;;
4009;SDS011;2019;48.200;11.548;2022-08-27T10:38:45;7.70;;;6.23;;
4009;SDS011;2019;48.200;11.548;2022-08-27T10:44:34;9.23;;;6.90;;
4009;SDS011;2019;48.200;11.548;2022-08-27T10:50:06;7.70;;;6.40;;
4009;SDS011;2019;48.200;11.548;2022-08-27T10:52:46;7.10;;;5.67;;
4009;SDS011;2019;48.200;11.548;2022-08-27T11:03:59;10.30;;;5.30;;
4009;SDS011;2019;48.200;11.548;2022-08-27T11:06:45;7.27;;;4.80;;
4009;SDS011;2019;48.200;11.548;2022-08-27T11:09:33;6.63;;;4.83;;
4009;SDS011;2019;48.200;11.548;2022-08-27T11:12:05;8.50;;;5.67;;
4009;SDS011;2019;48.200;11.548;2022-08-27T11:14:48;7.17;;;4.60;;
4009;SDS011;2019;48.200;11.548;2022-08-27T11:17:37;6.60;;;5.57;;
4009;SDS011;2019;48.200;11.548;2022-08-27T11:20:15;6.47;;;4.43;;
4009;SDS011;2019;48.200;11.548;2022-08-27T11:27:46;10.73;;;4.80;;
4009;SDS011;2019;48.200;11.548;2022-08-27T11:30:28;7.17;;;5.10;;
4009;SDS011;2019;48.200;11.548;2022-08-27T11:36:38;6.37;;;5.30;;
4009;SDS011;2019;48.200;11.548;2022-08-27T11:47:35;6.40;;;4.90;;
4009;SDS011;2019;48.200;11.548;2022-08-27T11:50:03;7.90;;;5.53;;
4009;SDS011;2019;48.200;11.548;2022-08-27T11:52:36;7.17;;;4.70;;
4009;SDS011;2019;48.200;11.548;2022-08-27T11:55:11;7.57;;;5.57;;
4009;SDS011;2019;48.200;11.548;2022-08-27T11:57:47;9.07;;;5.67;;
4009;SDS011;2019;48.200;11.548;2022-08-27T12:03:01;8.20;;;5.77;;
4009;SDS011;2019;48.200;11.548;2022-08-27T12:05:36;8.80;;;6.27;;
4009;SDS011;2019;48.200;11.548;2022-08-27T12:13:43;18.60;;;11.67;;
4009;SDS011;2019;48.200;11.548;2022-08-27T12:29:49;7.63;;;6.43;;
4009;SDS011;2019;48.200;11.548;2022-08-27T12:32:28;9.43;;;6.67;;
4009;SDS011;2019;48.200;11.548;2022-08-27T12:35:08;6.93;;;6.23;;
4009;SDS011;2019;48.200;11.548;2022-08-27T12:37:43;8.80;;;6.50;;
4009;SDS011;2019;48.200;11.548;2022-08-27T12:40:21;14.30;;;6.20;;
4009;SDS011;2019;48.200;11.548;2022-08-27T12:43:02;9.17;;;6.50;;
4009;SDS011;2019;48.200;11.548;2022-08-27T12:45:32;17.00;;;12.50;;
4009;SDS011;2019;48.200;11.548;2022-08-27T12:48:07;12.00;;;10.20;;
4009;SDS011;2019;48.200;11.548;2022-08-27T12:50:33;9.80;;;8.70;;
4009;SDS011;2019;48.200;11.548;2022-08-27T12:53:14;11.50;;;7.73;;
4009;SDS011;2019;48.200;11.548;2022-08-27T12:56:12;9.60;;;6.37;;
4009;SDS011;2019;48.200;11.548;2022-08-27T13:01:59;8.30;;;5.90;;
4009;SDS011;2019;48.200;11.548;2022-08-27T13:04:31;9.73;;;6.70;;
4009;SDS011;2019;48.200;11.548;2022-08-27T13:07:00;10.67;;;6.00;;
4009;SDS011;2019;48.200;11.548;2022-08-27T13:09:30;9.50;;;5.03;;
4009;SDS011;2019;48.200;11.548;2022-08-27T13:12:02;6.30;;;5.30;;
4009;SDS011;2019;48.200;11.548;2022-08-27T13:14:35;6.53;;;4.60;;
4009;SDS011;2019;48.200;11.548;2022-08-27T13:17:08;9.90;;;5.03;;
4009;SDS011;2019;48.200;11.548;2022-08-27T13:19:46;6.10;;;5.00;;
4009;SDS011;2019;48.200;11.548;2022-08-27T13:22:21;9.70;;;4.80;;
4009;SDS011;2019;48.200;11.548;2022-08-27T13:24:49;6.87;;;5.03;;
4009;SDS011;2019;48.200;11.548;2022-08-27T13:27:22;7.27;;;4.60;;
4009;SDS011;2019;48.200;11.548;2022-08-27T13:29:49;6.53;;;4.83;;
4009;SDS011;2019;48.200;11.548;2022-08-27T13:32:16;7.00;;;4.97;;
4009;SDS011;2019;48.200;11.548;2022-08-27T13:34:42;5.27;;;4.40;;
4009;SDS011;2019;48.200;11.548;2022-08-27T13:39:57;6.50;;;4.60;;
4009;SDS011;2019;48.200;11.548;2022-08-27T13:42:23;5.70;;;4.27;;
4009;SDS011;2019;48.200;11.548;2022-08-27T13:44:49;4.97;;;4.47;;
4009;SDS011;2019;48.200;11.548;2022-08-27T13:49:48;30.00;;;18.03;;
4009;SDS011;2019;48.200;11.548;2022-08-27T13:54:50;8.37;;;6.50;;
4009;SDS011;2019;48.200;11.548;2022-08-27T13:57:30;7.20;;;5.27;;
4009;SDS011;2019;48.200;11.548;2022-08-27T14:02:47;12.30;;;8.67;;
4009;SDS011;2019;48.200;11.548;2022-08-27T14:05:34;6.97;;;5.30;;
4009;SDS011;2019;48.200;11.548;2022-08-27T14:08:09;7.60;;;5.63;;
4009;SDS011;2019;48.200;11.548;2022-08-27T14:10:40;7.00;;;5.83;;
4009;SDS011;2019;48.200;11.548;2022-08-27T14:15:41;10.73;;;6.00;;
4009;SDS011;2019;48.200;11.548;2022-08-27T14:20:58;8.03;;;6.80;;
4009;SDS011;2019;48.200;11.548;2022-08-27T14:23:25;7.73;;;5.60;;
4009;SDS011;2019;48.200;11.548;2022-08-27T14:25:52;6.30;;;4.80;;
4009;SDS011;2019;48.200;11.548;2022-08-27T14:28:23;10.77;;;8.10;;
4009;SDS011;2019;48.200;11.548;2022-08-27T14:30:49;14.27;;;9.37;;
4009;SDS011;2019;48.200;11.548;2022-08-27T14:33:15;8.80;;;6.27;;
4009;SDS011;2019;48.200;11.548;2022-08-27T14:35:41;18.13;;;8.93;;
4009;SDS011;2019;48.200;11.548;2022-08-27T14:38:18;9.10;;;7.63;;
4009;SDS011;2019;48.200;11.548;2022-08-27T14:40:47;8.03;;;7.20;;
4009;SDS011;2019;48.200;11.548;2022-08-27T14:43:14;7.07;;;5.57;;
4009;SDS011;2019;48.200;11.548;2022-08-27T14:45:40;9.83;;;4.87;;
4009;SDS011;2019;48.200;11.548;2022-08-27T14:48:09;11.50;;;6.60;;
4009;SDS011;2019;48.200;11.548;2022-08-27T14:50:37;7.63;;;5.13;;
4009;SDS011;2019;48.200;11.548;2022-08-27T14:53:03;6.07;;;4.70;;
4009;SDS011;2019;48.200;11.548;2022-08-27T14:55:29;18.37;;;10.57;;
4009;SDS011;2019;48.200;11.548;2022-08-27T14:57:55;7.73;;;6.30;;
4009;SDS011;2019;48.200;11.548;2022-08-27T15:00:21;10.30;;;6.00;;
4009;SDS011;2019;48.200;11.548;2022-08-27T15:02:47;7.63;;;6.73;;
4009;SDS011;2019;48.200;11.548;2022-08-27T15:05:14;7.17;;;4.77;;
4009;SDS011;2019;48.200;11.548;2022-08-27T15:07:41;5.93;;;4.40;;
4009;SDS011;2019;48.200;11.548;2022-08-27T15:10:06;6.50;;;4.63;;
4009;SDS011;2019;48.200;11.548;2022-08-27T15:12:33;15.07;;;7.67;;
4009;SDS011;2019;48.200;11.548;2022-08-27T15:14:58;9.57;;;6.63;;
4009;SDS011;2019;48.200;11.548;2022-08-27T15:17:24;6.53;;;4.40;;
4009;SDS011;2019;48.200;11.548;2022-08-27T15:19:50;7.37;;;5.60;;
4009;SDS011;2019;48.200;11.548;2022-08-27T15:22:16;13.33;;;4.70;;
4009;SDS011;2019;48.200;11.548;2022-08-27T15:24:45;10.17;;;5.10;;
4009;SDS011;2019;48.200;11.548;2022-08-27T15:27:14;7.43;;;6.47;;
4009;SDS011;2019;48.200;11.548;2022-08-27T15:29:40;7.90;;;7.10;;
4009;SDS011;2019;48.200;11.548;2022-08-27T15:32:07;21.73;;;8.40;;
4009;SDS011;2019;48.200;11.548;2022-08-27T15:34:42;9.47;;;6.80;;
4009;SDS011;2019;48.200;11.548;2022-08-27T15:37:07;13.30;;;7.57;;
4009;SDS011;2019;48.200;11.548;2022-08-27T15:39:33;16.13;;;8.93;;
4009;SDS011;2019;48.200;11.548;2022-08-27T15:41:59;9.90;;;7.70;;
4009;SDS011;2019;48.200;11.548;2022-08-27T15:44:24;10.10;;;8.47;;
4009;SDS011;2019;48.200;11.548;2022-08-27T15:46:50;20.80;;;13.00;;
4009;SDS011;2019;48.200;11.548;2022-08-27T15:49:15;19.07;;;13.53;;
4009;SDS011;2019;48.200;11.548;2022-08-27T15:51:41;14.83;;;9.20;;
4009;SDS011;2019;48.200;11.548;2022-08-27T15:54:08;14.10;;;9.30;;
4009;SDS011;2019;48.200;11.548;2022-08-27T15:56:34;23.23;;;8.80;;
4009;SDS011;2019;48.200;11.548;2022-08-27T15:59:00;13.13;;;8.13;;
4009;SDS011;2019;48.200;11.548;2022-08-27T16:01:27;15.10;;;8.47;;
4009;SDS011;2019;48.200;11.548;2022-08-27T16:03:55;10.17;;;8.20;;
4009;SDS011;2019;48.200;11.548;2022-08-27T16:06:22;9.30;;;7.87;;
4009;SDS011;2019;48.200;11.548;2022-08-27T16:08:51;10.30;;;7.30;;
4009;SDS011;2019;48.200;11.548;2022-08-27T16:11:17;11.80;;;8.20;;
4009;SDS011;2019;48.200;11.548;2022-08-27T16:13:43;11.33;;;8.50;;
4009;SDS011;2019;48.200;11.548;2022-08-27T16:16:09;9.47;;;8.00;;
4009;SDS011;2019;48.200;11.548;2022-08-27T16:18:36;9.80;;;7.03;;
4009;SDS011;2019;48.200;11.548;2022-08-27T16:21:02;10.00;;;7.07;;
4009;SDS011;2019;48.200;11.548;2022-08-27T16:23:29;10.13;;;7.50;;
4009;SDS011;2019;48.200;11.548;2022-08-27T16:25:56;9.90;;;7.57;;
4009;SDS011;2019;48.200;11.548;2022-08-27T16:28:23;10.87;;;7.40;;
4009;SDS011;2019;48.200;11.548;2022-08-27T16:30:49;9.87;;;6.60;;
4009;SDS011;2019;48.200;11.548;2022-08-27T16:33:17;13.03;;;7.00;;
4009;SDS011;2019;48.200;11.548;2022-08-27T16:35:44;8.47;;;7.33;;
4009;SDS011;2019;48.200;11.548;2022-08-27T16:38:10;6.60;;;5.83;;
4009;SDS011;2019;48.200;11.548;2022-08-27T16:40:37;10.53;;;6.27;;
4009;SDS011;2019;48.200;11.548;2022-08-27T16:43:25;9.10;;;6.63;;
4009;SDS011;2019;48.200;11.548;2022-08-27T16:45:52;12.30;;;6.77;;
4009;SDS011;2019;48.200;11.548;2022-08-27T16:48:20;11.63;;;6.27;;
4009;SDS011;2019;48.200;11.548;2022-08-27T16:51:05;9.17;;;6.90;;